createdAt,value
2022-10-01T00:02:17.868Z,12.86
2022-10-01T00:04:47.179Z,12.86
2022-10-01T00:07:16.416Z,12.88
2022-10-01T00:09:45.455Z,12.95
2022-10-01T00:12:15.874Z,12.92
2022-10-01T00:14:46.416Z,12.98
2022-10-01T00:17:15.477Z,12.99
2022-10-01T00:19:44.604Z,12.97
2022-10-01T00:22:13.740Z,13.06
2022-10-01T00:24:42.755Z,13.08
2022-10-01T00:27:12.608Z,13.04
2022-10-01T00:29:44.278Z,13.06
2022-10-01T00:32:15.552Z,13.11
2022-10-01T00:34:46.335Z,13.19
2022-10-01T00:37:15.594Z,13.13
2022-10-01T00:39:45.107Z,13.13
2022-10-01T00:42:19.931Z,13.11
2022-10-01T00:44:50.184Z,13.08
2022-10-01T00:47:29.452Z,13.09
2022-10-01T00:50:05.897Z,13.07
2022-10-01T00:52:39.332Z,13.08
2022-10-01T00:55:13.160Z,12.99
2022-10-01T00:57:43.660Z,12.97
2022-10-01T01:00:14.884Z,13.01
2022-10-01T01:02:45.470Z,13.00
2022-10-01T01:05:15.550Z,13.08
2022-10-01T01:07:48.116Z,13.05
2022-10-01T01:10:20.684Z,13.06
2022-10-01T01:13:09.413Z,13.09
2022-10-01T01:15:45.433Z,13.02
2022-10-01T01:18:24.216Z,13.01
2022-10-01T01:21:18.708Z,13.04
2022-10-01T01:24:37.007Z,13.01
2022-10-01T01:27:25.590Z,13.02
2022-10-01T01:30:04.299Z,13.01
2022-10-01T01:32:46.426Z,13.01
2022-10-01T01:35:22.917Z,13.03
2022-10-01T01:37:57.384Z,13.05
2022-10-01T01:40:28.089Z,13.07
2022-10-01T01:42:59.523Z,13.02
2022-10-01T01:45:32.010Z,12.99
2022-10-01T01:48:03.238Z,12.98
2022-10-01T01:50:42.124Z,12.94
2022-10-01T01:53:11.320Z,12.91
2022-10-01T01:55:40.746Z,12.93
2022-10-01T01:58:10.002Z,13.07
2022-10-01T02:00:40.951Z,13.14
2022-10-01T02:03:11.685Z,13.05
2022-10-01T02:05:50.132Z,13.06
2022-10-01T02:08:37.002Z,13.05
2022-10-01T02:11:21.584Z,13.07
2022-10-01T02:14:11.836Z,13.07
2022-10-01T02:16:50.071Z,13.09
2022-10-01T02:19:28.982Z,13.09
2022-10-01T02:22:02.426Z,13.09
2022-10-01T02:24:40.585Z,13.11
2022-10-01T02:27:16.385Z,13.09
2022-10-01T02:29:47.332Z,13.08
2022-10-01T02:32:19.640Z,13.05
2022-10-01T02:34:52.086Z,12.99
2022-10-01T02:37:26.099Z,13.00
2022-10-01T02:39:58.070Z,13.05
2022-10-01T02:42:30.876Z,13.01
2022-10-01T02:45:02.811Z,13.02
2022-10-01T02:47:38.645Z,13.05
2022-10-01T02:50:09.816Z,12.96
2022-10-01T02:52:43.731Z,12.90
2022-10-01T02:55:16.485Z,12.93
2022-10-01T02:57:45.010Z,12.96
2022-10-01T03:00:17.098Z,12.99
2022-10-01T03:02:47.538Z,13.03
2022-10-01T03:05:16.947Z,13.04
2022-10-01T03:07:45.969Z,13.05
2022-10-01T03:10:16.209Z,13.06
2022-10-01T03:12:46.791Z,13.06
2022-10-01T03:15:19.280Z,13.11
2022-10-01T03:17:52.484Z,13.15
2022-10-01T03:20:22.474Z,13.12
2022-10-01T03:22:52.059Z,13.11
2022-10-01T03:25:21.173Z,13.08
2022-10-01T03:27:53.600Z,13.03
2022-10-01T03:30:22.738Z,13.02
2022-10-01T03:32:53.218Z,13.00
2022-10-01T03:35:22.258Z,13.02
2022-10-01T03:37:51.295Z,13.03
2022-10-01T03:40:20.376Z,13.07
2022-10-01T03:42:50.141Z,13.07
2022-10-01T03:45:19.223Z,13.07
2022-10-01T03:47:54.672Z,13.07
2022-10-01T03:50:23.744Z,13.07
2022-10-01T03:52:52.849Z,13.10
2022-10-01T03:55:21.912Z,13.10
2022-10-01T03:57:50.933Z,13.12
2022-10-01T04:00:20.050Z,13.14
2022-10-01T04:02:49.139Z,13.13
2022-10-01T04:05:19.681Z,13.15
2022-10-01T04:07:49.959Z,13.13
2022-10-01T04:10:19.254Z,13.13
2022-10-01T04:12:48.336Z,13.15
2022-10-01T04:15:17.876Z,13.13
2022-10-01T04:17:46.994Z,13.11
2022-10-01T04:20:16.329Z,13.13
2022-10-01T04:22:47.278Z,13.14
2022-10-01T04:25:16.630Z,13.14
2022-10-01T04:27:57.925Z,13.13
2022-10-01T04:30:29.545Z,13.15
2022-10-01T04:32:58.691Z,13.15
2022-10-01T04:35:28.967Z,13.18
2022-10-01T04:38:01.982Z,13.25
2022-10-01T04:40:31.672Z,13.26
2022-10-01T04:43:00.841Z,13.15
2022-10-01T04:45:30.029Z,13.09
2022-10-01T04:48:00.201Z,13.09
2022-10-01T04:50:29.792Z,13.05
2022-10-01T04:53:00.344Z,12.99
2022-10-01T04:55:29.462Z,12.96
2022-10-01T04:57:58.569Z,12.98
2022-10-01T05:00:27.637Z,13.00
2022-10-01T05:02:56.888Z,13.01
2022-10-01T05:05:28.169Z,13.00
2022-10-01T05:07:57.224Z,12.95
2022-10-01T05:10:27.679Z,12.96
2022-10-01T05:12:58.035Z,12.98
2022-10-01T05:15:28.303Z,13.00
2022-10-01T05:17:57.479Z,13.03
2022-10-01T05:20:29.211Z,13.06
2022-10-01T05:22:58.262Z,13.11
2022-10-01T05:25:28.957Z,13.15
2022-10-01T05:28:05.402Z,13.16
2022-10-01T05:30:35.676Z,13.20
2022-10-01T05:33:05.880Z,13.25
2022-10-01T05:35:35.074Z,13.33
2022-10-01T05:38:04.217Z,13.43
2022-10-01T05:40:34.754Z,13.48
2022-10-01T05:43:04.455Z,13.49
2022-10-01T05:45:34.008Z,13.54
2022-10-01T05:48:05.487Z,13.58
2022-10-01T05:50:39.268Z,13.58
2022-10-01T05:53:11.021Z,13.59
2022-10-01T05:55:41.484Z,13.62
2022-10-01T05:58:12.833Z,13.51
2022-10-01T06:00:43.964Z,13.38
2022-10-01T06:03:15.151Z,13.37
2022-10-01T06:05:46.224Z,13.38
2022-10-01T06:08:16.190Z,13.47
2022-10-01T06:10:47.187Z,13.43
2022-10-01T06:13:17.815Z,13.48
2022-10-01T06:15:47.575Z,13.59
2022-10-01T06:18:17.147Z,13.67
2022-10-01T06:20:47.201Z,13.67
2022-10-01T06:23:16.620Z,13.68
2022-10-01T06:25:47.455Z,13.83
2022-10-01T06:28:16.611Z,13.98
2022-10-01T06:30:46.717Z,13.95
2022-10-01T06:33:18.084Z,14.04
2022-10-01T06:35:49.113Z,14.24
2022-10-01T06:38:21.037Z,14.39
2022-10-01T06:40:55.382Z,14.57
2022-10-01T06:43:26.006Z,14.89
2022-10-01T06:45:55.588Z,14.86
2022-10-01T06:48:24.729Z,14.73
2022-10-01T06:50:53.797Z,14.90
2022-10-01T06:53:22.836Z,15.01
2022-10-01T06:55:53.230Z,14.93
2022-10-01T06:58:24.528Z,14.87
2022-10-01T07:00:58.679Z,14.85
2022-10-01T07:03:27.988Z,14.80
2022-10-01T07:06:03.951Z,14.70
2022-10-01T07:08:33.416Z,14.55
2022-10-01T07:11:05.064Z,14.59
2022-10-01T07:13:34.232Z,14.69
2022-10-01T07:16:04.975Z,14.74
2022-10-01T07:18:34.411Z,14.76
2022-10-01T07:21:03.426Z,14.77
2022-10-01T07:23:32.464Z,14.79
2022-10-01T07:26:01.511Z,14.63
2022-10-01T07:28:31.984Z,14.66
2022-10-01T07:31:05.124Z,14.65
2022-10-01T07:33:34.497Z,14.66
2022-10-01T07:36:05.573Z,14.76
2022-10-01T07:38:34.908Z,14.85
2022-10-01T07:41:04.716Z,15.05
2022-10-01T07:43:36.608Z,15.40
2022-10-01T07:46:07.238Z,15.62
2022-10-01T07:48:36.884Z,15.88
2022-10-01T07:51:06.063Z,16.05
2022-10-01T07:53:35.152Z,16.10
2022-10-01T07:56:05.004Z,16.13
2022-10-01T07:58:36.633Z,16.08
2022-10-01T08:01:06.125Z,15.56
2022-10-01T08:03:35.168Z,15.33
2022-10-01T08:06:06.826Z,15.16
2022-10-01T08:08:35.999Z,14.93
2022-10-01T08:11:05.479Z,14.82
2022-10-01T08:13:36.108Z,14.90
2022-10-01T08:16:06.558Z,14.97
2022-10-01T08:18:35.740Z,15.07
2022-10-01T08:21:05.570Z,15.00
2022-10-01T08:23:35.375Z,15.09
2022-10-01T08:26:08.691Z,15.37
2022-10-01T08:28:40.146Z,15.32
2022-10-01T08:31:10.218Z,15.23
2022-10-01T08:33:39.979Z,15.24
2022-10-01T08:36:09.632Z,15.17
2022-10-01T08:38:40.223Z,15.21
2022-10-01T08:41:27.273Z,15.20
2022-10-01T08:43:58.836Z,15.26
2022-10-01T08:46:35.084Z,15.23
2022-10-01T08:49:19.213Z,15.28
2022-10-01T08:51:53.974Z,15.23
2022-10-01T08:54:33.536Z,15.35
2022-10-01T08:57:05.997Z,15.52
2022-10-01T08:59:42.347Z,15.77
2022-10-01T09:02:23.638Z,15.88
2022-10-01T09:05:01.242Z,16.13
2022-10-01T09:07:51.095Z,16.35
2022-10-01T09:10:33.989Z,16.61
2022-10-01T09:13:57.548Z,16.70
2022-10-01T09:16:36.605Z,16.67
2022-10-01T09:19:23.002Z,16.60
2022-10-01T09:21:59.001Z,16.60
2022-10-01T09:24:42.222Z,16.58
2022-10-01T09:27:17.750Z,16.60
2022-10-01T09:29:52.481Z,16.63
2022-10-01T09:32:28.437Z,16.71
2022-10-01T09:35:04.527Z,16.80
2022-10-01T09:37:43.074Z,16.93
2022-10-01T09:40:21.660Z,17.01
2022-10-01T09:42:51.396Z,17.03
2022-10-01T09:45:23.827Z,16.97
2022-10-01T09:47:59.851Z,16.97
2022-10-01T09:50:39.867Z,16.99
2022-10-01T09:53:17.799Z,17.00
2022-10-01T09:55:54.013Z,17.02
2022-10-01T09:58:26.766Z,17.01
2022-10-01T10:00:57.327Z,17.02
2022-10-01T10:03:31.444Z,16.97
2022-10-01T10:06:02.175Z,16.87
2022-10-01T10:08:35.363Z,16.87
2022-10-01T10:11:07.621Z,16.85
2022-10-01T10:13:41.747Z,16.74
2022-10-01T10:16:20.577Z,16.60
2022-10-01T10:18:52.527Z,16.55
2022-10-01T10:21:26.738Z,16.63
2022-10-01T10:23:59.112Z,16.72
2022-10-01T10:26:33.351Z,16.83
2022-10-01T10:29:04.896Z,16.94
2022-10-01T10:31:46.367Z,17.00
2022-10-01T10:34:23.092Z,17.11
2022-10-01T10:36:59.231Z,17.09
2022-10-01T10:39:32.617Z,17.08
2022-10-01T10:42:04.145Z,17.20
2022-10-01T10:44:39.822Z,17.19
2022-10-01T10:47:13.805Z,17.16
2022-10-01T10:49:48.429Z,17.09
2022-10-01T10:52:23.795Z,16.99
2022-10-01T10:54:53.575Z,16.94
2022-10-01T10:57:27.997Z,16.97
2022-10-01T11:00:01.080Z,17.12
2022-10-01T11:02:33.333Z,17.29
2022-10-01T11:05:16.870Z,17.35
2022-10-01T11:07:48.554Z,17.38
2022-10-01T11:10:33.475Z,17.33
2022-10-01T11:13:24.510Z,17.25
2022-10-01T11:16:24.363Z,17.22
2022-10-01T11:19:11.630Z,17.24
2022-10-01T11:22:03.534Z,17.31
2022-10-01T11:24:52.888Z,17.33
2022-10-01T11:27:36.244Z,17.28
2022-10-01T11:30:11.534Z,17.26
2022-10-01T11:32:46.605Z,17.17
2022-10-01T11:35:37.287Z,17.23
2022-10-01T11:38:48.891Z,17.20
2022-10-01T11:41:29.974Z,17.04
2022-10-01T11:44:05.213Z,17.01
2022-10-01T11:46:48.815Z,17.05
2022-10-01T11:49:33.085Z,17.12
2022-10-01T11:52:13.479Z,17.14
2022-10-01T11:55:00.224Z,17.07
2022-10-01T11:57:47.437Z,17.02
2022-10-01T12:00:17.012Z,17.01
2022-10-01T12:02:55.967Z,16.94
2022-10-01T12:05:31.374Z,16.93
2022-10-01T12:08:09.408Z,16.81
2022-10-01T12:10:44.520Z,16.81
2022-10-01T12:13:22.756Z,16.83
2022-10-01T12:15:59.160Z,16.93
2022-10-01T12:18:34.260Z,17.10
2022-10-01T12:21:07.801Z,17.36
2022-10-01T12:23:50.618Z,17.69
2022-10-01T12:26:36.619Z,17.92
2022-10-01T12:29:15.985Z,18.01
2022-10-01T12:31:56.693Z,18.10
2022-10-01T12:34:40.993Z,18.16
2022-10-01T12:37:22.590Z,18.34
2022-10-01T12:40:16.725Z,18.55
2022-10-01T12:43:15.054Z,19.16
2022-10-01T12:45:54.292Z,19.75
2022-10-01T12:48:32.821Z,20.25
2022-10-01T12:51:32.644Z,20.14
2022-10-01T12:54:14.544Z,20.04
2022-10-01T12:56:49.599Z,19.99
2022-10-01T12:59:42.475Z,19.93
2022-10-01T13:02:33.110Z,19.90
2022-10-01T13:05:21.237Z,19.81
2022-10-01T13:08:08.198Z,19.64
2022-10-01T13:10:57.442Z,19.50
2022-10-01T13:13:33.036Z,19.35
2022-10-01T13:16:12.141Z,19.36
2022-10-01T13:18:58.800Z,19.46
2022-10-01T13:21:42.240Z,19.47
2022-10-01T13:24:20.326Z,19.48
2022-10-01T13:26:56.050Z,19.34
2022-10-01T13:29:45.158Z,19.24
2022-10-01T13:32:34.369Z,19.21
2022-10-01T13:35:23.995Z,19.47
2022-10-01T13:37:54.600Z,19.64
2022-10-01T13:40:29.452Z,19.69
2022-10-01T13:43:02.727Z,19.71
2022-10-01T13:45:41.054Z,19.68
2022-10-01T13:48:20.976Z,19.58
2022-10-01T13:51:03.140Z,19.24
2022-10-01T13:53:36.837Z,18.89
2022-10-01T13:56:07.210Z,18.62
2022-10-01T13:58:40.702Z,18.38
2022-10-01T14:01:30.785Z,18.26
2022-10-01T14:04:08.603Z,18.36
2022-10-01T14:06:44.827Z,18.58
2022-10-01T14:09:18.389Z,18.81
2022-10-01T14:12:10.091Z,18.88
2022-10-01T14:14:59.217Z,18.72
2022-10-01T14:17:32.918Z,18.63
2022-10-01T14:20:06.555Z,18.50
2022-10-01T14:23:04.135Z,18.42
2022-10-01T14:25:51.438Z,18.52
2022-10-01T14:28:49.000Z,18.48
2022-10-01T14:31:32.532Z,18.29
2022-10-01T14:34:34.367Z,17.87
2022-10-01T14:37:08.767Z,17.60
2022-10-01T14:39:40.884Z,17.38
2022-10-01T14:42:17.015Z,17.18
2022-10-01T14:44:48.701Z,17.15
2022-10-01T14:47:22.604Z,17.07
2022-10-01T14:49:52.999Z,17.00
2022-10-01T14:52:27.696Z,16.93
2022-10-01T14:55:03.716Z,16.84
2022-10-01T14:57:39.283Z,16.73
2022-10-01T15:00:15.607Z,16.66
2022-10-01T15:02:49.537Z,16.59
2022-10-01T15:05:27.503Z,16.55
2022-10-01T15:07:59.977Z,16.36
2022-10-01T15:10:29.703Z,16.21
2022-10-01T15:12:59.517Z,16.06
2022-10-01T15:15:34.709Z,16.01
2022-10-01T15:18:06.223Z,15.88
2022-10-01T15:20:36.073Z,15.72
2022-10-01T15:23:07.800Z,15.59
2022-10-01T15:25:37.551Z,15.52
2022-10-01T15:28:15.759Z,15.40
2022-10-01T15:30:45.805Z,15.36
2022-10-01T15:33:27.904Z,15.32
2022-10-01T15:35:59.605Z,15.32
2022-10-01T15:38:33.079Z,15.32
2022-10-01T15:41:30.690Z,15.25
2022-10-01T15:44:06.699Z,15.17
2022-10-01T15:46:36.663Z,15.14
2022-10-01T15:49:20.851Z,15.16
2022-10-01T15:52:15.116Z,15.06
2022-10-01T15:54:47.138Z,14.99
2022-10-01T15:57:21.995Z,14.98
2022-10-01T15:59:54.999Z,14.99
2022-10-01T16:02:27.381Z,14.96
2022-10-01T16:05:06.864Z,14.94
2022-10-01T16:07:36.104Z,14.96
2022-10-01T16:10:27.330Z,14.88
2022-10-01T16:12:57.415Z,14.82
2022-10-01T16:15:30.607Z,14.81
2022-10-01T16:18:02.508Z,14.71
2022-10-01T16:20:38.307Z,14.67
2022-10-01T16:23:44.606Z,14.64
2022-10-01T16:26:38.799Z,14.63
2022-10-01T16:29:26.846Z,14.59
2022-10-01T16:32:06.032Z,14.45
2022-10-01T16:34:35.371Z,14.47
2022-10-01T16:37:04.496Z,14.34
2022-10-01T16:39:33.674Z,14.17
2022-10-01T16:42:22.832Z,14.18
2022-10-01T16:44:54.733Z,14.19
2022-10-01T16:47:23.819Z,14.18
2022-10-01T16:49:53.869Z,14.19
2022-10-01T16:52:23.001Z,14.18
2022-10-01T16:54:52.225Z,14.15
2022-10-01T16:57:26.890Z,14.05
2022-10-01T16:59:57.060Z,13.88
2022-10-01T17:02:26.234Z,13.83
2022-10-01T17:04:57.374Z,13.76
2022-10-01T17:07:29.589Z,13.70
2022-10-01T17:09:58.785Z,13.69
2022-10-01T17:12:42.710Z,13.54
2022-10-01T17:15:17.330Z,13.45
2022-10-01T17:17:46.833Z,13.42
2022-10-01T17:20:17.300Z,13.41
2022-10-01T17:22:46.580Z,13.39
2022-10-01T17:25:19.409Z,13.28
2022-10-01T17:27:56.881Z,13.25
2022-10-01T17:30:29.265Z,13.20
2022-10-01T17:32:59.994Z,13.16
2022-10-01T17:35:31.055Z,13.08
2022-10-01T17:38:00.402Z,12.97
2022-10-01T17:40:29.563Z,12.89
2022-10-01T17:43:01.122Z,12.82
2022-10-01T17:45:30.263Z,12.80
2022-10-01T17:48:05.024Z,12.73
2022-10-01T17:50:35.456Z,12.71
2022-10-01T17:53:04.589Z,12.68
2022-10-01T17:55:33.854Z,12.75
2022-10-01T17:58:06.887Z,12.66
2022-10-01T18:00:36.631Z,12.63
2022-10-01T18:03:06.805Z,12.55
2022-10-01T18:05:36.095Z,12.44
2022-10-01T18:08:05.164Z,12.32
2022-10-01T18:10:34.324Z,12.22
2022-10-01T18:13:05.156Z,12.24
2022-10-01T18:15:34.288Z,12.49
2022-10-01T18:20:53.899Z,12.34
2022-10-01T18:23:27.312Z,12.23
2022-10-01T18:25:58.072Z,12.06
2022-10-01T18:28:32.743Z,12.16
2022-10-01T18:31:19.976Z,12.14
2022-10-01T18:33:53.588Z,11.99
2022-10-01T18:36:54.828Z,12.03
2022-10-01T18:39:34.472Z,11.90
2022-10-01T18:42:14.829Z,11.87
2022-10-01T18:44:58.186Z,11.85
2022-10-01T18:47:41.651Z,11.89
2022-10-01T18:50:40.462Z,11.94
2022-10-01T18:53:45.848Z,11.94
2022-10-01T18:56:38.961Z,11.94
2022-10-01T18:59:53.077Z,12.02
2022-10-01T19:03:10.047Z,11.96
2022-10-01T19:06:29.441Z,12.06
2022-10-01T19:09:15.146Z,11.97
2022-10-01T19:11:57.524Z,11.82
2022-10-01T19:14:45.504Z,12.16
2022-10-01T19:17:29.061Z,11.90
2022-10-01T19:20:17.061Z,11.86
2022-10-01T19:23:07.288Z,11.81
2022-10-01T19:25:51.270Z,11.77
2022-10-01T19:28:48.077Z,11.84
2022-10-01T19:31:29.891Z,11.91
2022-10-01T19:34:15.245Z,11.87
2022-10-01T19:36:57.353Z,11.84
2022-10-01T19:39:33.137Z,11.82
2022-10-01T19:42:11.092Z,11.96
2022-10-01T19:44:51.539Z,11.85
2022-10-01T19:47:37.495Z,11.87
2022-10-01T19:50:21.195Z,11.92
2022-10-01T19:52:57.687Z,11.83
2022-10-01T19:55:36.387Z,12.09
2022-10-01T19:58:18.878Z,11.99
2022-10-01T20:00:52.244Z,11.76
2022-10-01T20:03:38.537Z,11.77
2022-10-01T20:06:35.538Z,11.79
2022-10-01T20:09:17.017Z,11.76
2022-10-01T20:11:53.096Z,11.80
2022-10-01T20:14:57.364Z,11.74
2022-10-01T20:17:32.769Z,11.76
2022-10-01T20:20:13.565Z,11.64
2022-10-01T20:23:06.558Z,11.56
2022-10-01T20:25:47.860Z,11.53
2022-10-01T20:28:26.022Z,11.54
2022-10-01T20:31:04.296Z,11.59
2022-10-01T20:33:44.310Z,11.60
2022-10-01T20:36:35.167Z,11.64
2022-10-01T20:39:14.966Z,11.65
2022-10-01T20:41:56.777Z,11.63
2022-10-01T20:45:20.054Z,11.65
2022-10-01T20:47:58.163Z,11.63
2022-10-01T20:50:32.916Z,11.82
2022-10-01T20:53:19.240Z,11.68
2022-10-01T20:55:55.944Z,11.65
2022-10-01T20:58:32.382Z,11.70
2022-10-01T21:01:08.826Z,11.64
2022-10-01T21:03:44.410Z,11.59
2022-10-01T21:06:18.333Z,11.58
2022-10-01T21:08:52.615Z,11.57
2022-10-01T21:11:31.698Z,11.62
2022-10-01T21:14:14.056Z,11.55
2022-10-01T21:17:26.198Z,11.64
2022-10-01T21:20:20.301Z,11.59
2022-10-01T21:23:14.930Z,11.60
2022-10-01T21:25:59.877Z,11.58
2022-10-01T21:28:54.699Z,11.60
2022-10-01T21:31:42.919Z,11.52
2022-10-01T21:34:17.635Z,11.52
2022-10-01T21:37:00.013Z,11.60
2022-10-01T21:39:34.629Z,11.53
2022-10-01T21:42:16.402Z,11.49
2022-10-01T21:45:23.228Z,11.45
2022-10-01T21:48:26.241Z,11.39
2022-10-01T21:51:01.376Z,11.28
2022-10-01T21:54:27.562Z,11.22
2022-10-01T21:57:14.871Z,11.19
2022-10-01T22:00:08.772Z,11.15
2022-10-01T22:02:52.452Z,11.09
2022-10-01T22:05:33.166Z,11.05
2022-10-01T22:08:21.856Z,10.94
2022-10-01T22:10:55.568Z,10.82
2022-10-01T22:13:30.143Z,10.79
2022-10-01T22:16:04.196Z,10.71
2022-10-01T22:18:38.336Z,10.66
2022-10-01T22:21:13.790Z,10.66
2022-10-01T22:23:52.946Z,10.64
2022-10-01T22:26:27.880Z,10.62
2022-10-01T22:28:57.428Z,10.65
2022-10-01T22:31:32.079Z,10.67
2022-10-01T22:34:06.952Z,10.56
2022-10-01T22:36:44.747Z,10.42
2022-10-01T22:39:20.811Z,10.29
2022-10-01T22:41:56.642Z,10.21
2022-10-01T22:44:28.773Z,10.10
2022-10-01T22:47:32.970Z,10.01
2022-10-01T22:50:18.324Z,10.02
2022-10-01T22:53:07.892Z,10.01
2022-10-01T22:55:47.936Z,9.80
2022-10-01T22:58:39.220Z,9.82
2022-10-01T23:01:19.568Z,9.68
2022-10-01T23:04:07.729Z,9.57
2022-10-01T23:06:42.254Z,9.43
2022-10-01T23:09:20.625Z,9.40
2022-10-01T23:12:01.800Z,9.30
2022-10-01T23:14:49.951Z,9.27
2022-10-01T23:17:27.883Z,9.20
2022-10-01T23:20:16.554Z,9.27
2022-10-01T23:23:15.885Z,9.29
2022-10-01T23:26:20.797Z,9.29
2022-10-01T23:29:14.145Z,9.27
2022-10-01T23:31:55.697Z,9.17
2022-10-01T23:34:37.277Z,9.03
2022-10-01T23:37:28.997Z,9.00
2022-10-01T23:40:04.022Z,8.97
2022-10-01T23:42:41.259Z,8.97
2022-10-01T23:45:22.566Z,8.97
2022-10-01T23:48:01.713Z,9.01
2022-10-01T23:50:36.341Z,8.94
2022-10-01T23:53:15.389Z,9.07
2022-10-01T23:56:10.937Z,9.21
2022-10-01T23:58:51.700Z,9.00
